sensor_id;sensor_type;location;lat;lon;timestamp;pressure;altitude;pressure_sealevel;temperature;humidity
54465;BME280;40374;49.480;20.016;2022-11-20T00:01:25;94512.47;;;-2.42;100.00
54465;BME280;40374;49.480;20.016;2022-11-20T00:03:54;94511.91;;;-2.51;100.00
54465;BME280;40374;49.480;20.016;2022-11-20T00:06:22;94506.44;;;-2.50;100.00
54465;BME280;40374;49.480;20.016;2022-11-20T00:08:53;94510.50;;;-2.54;100.00
54465;BME280;40374;49.480;20.016;2022-11-20T00:11:22;94491.44;;;-2.49;100.00
54465;BME280;40374;49.480;20.016;2022-11-20T00:13:53;94495.47;;;-2.47;100.00
54465;BME280;40374;49.480;20.016;2022-11-20T00:16:23;94475.22;;;-2.53;100.00
54465;BME280;40374;49.480;20.016;2022-11-20T00:18:51;94496.28;;;-2.53;100.00
54465;BME280;40374;49.480;20.016;2022-11-20T00:21:21;94485.53;;;-2.45;100.00
54465;BME280;40374;49.480;20.016;2022-11-20T00:23:50;94486.75;;;-2.47;100.00
54465;BME280;40374;49.480;20.016;2022-11-20T00:26:22;94495.47;;;-2.47;100.00
54465;BME280;40374;49.480;20.016;2022-11-20T00:28:53;94504.13;;;-2.39;100.00
54465;BME280;40374;49.480;20.016;2022-11-20T00:31:20;94476.28;;;-2.60;100.00
54465;BME280;40374;49.480;20.016;2022-11-20T00:33:49;94489.19;;;-2.52;100.00
54465;BME280;40374;49.480;20.016;2022-11-20T00:36:21;94481.25;;;-2.39;100.00
54465;BME280;40374;49.480;20.016;2022-11-20T00:38:58;94508.25;;;-2.18;100.00
54465;BME280;40374;49.480;20.016;2022-11-20T00:41:27;94508.75;;;-2.28;100.00
54465;BME280;40374;49.480;20.016;2022-11-20T00:43:56;94502.34;;;-2.46;100.00
54465;BME280;40374;49.480;20.016;2022-11-20T00:46:25;94507.94;;;-2.29;100.00
54465;BME280;40374;49.480;20.016;2022-11-20T00:48:53;94505.75;;;-2.38;100.00
54465;BME280;40374;49.480;20.016;2022-11-20T00:51:22;94498.97;;;-2.21;100.00
54465;BME280;40374;49.480;20.016;2022-11-20T00:53:51;94492.34;;;-2.30;100.00
54465;BME280;40374;49.480;20.016;2022-11-20T00:56:19;94490.47;;;-2.23;100.00
54465;BME280;40374;49.480;20.016;2022-11-20T00:58:48;94496.13;;;-2.19;100.00
54465;BME280;40374;49.480;20.016;2022-11-20T01:03:50;94500.16;;;-2.17;100.00
54465;BME280;40374;49.480;20.016;2022-11-20T01:06:20;94489.81;;;-2.12;100.00
54465;BME280;40374;49.480;20.016;2022-11-20T01:08:49;94494.28;;;-2.19;100.00
54465;BME280;40374;49.480;20.016;2022-11-20T01:11:20;94488.03;;;-2.18;100.00
54465;BME280;40374;49.480;20.016;2022-11-20T01:13:49;94496.94;;;-2.19;100.00
54465;BME280;40374;49.480;20.016;2022-11-20T01:16:25;94488.97;;;-2.06;100.00
54465;BME280;40374;49.480;20.016;2022-11-20T01:18:56;94494.22;;;-2.06;100.00
54465;BME280;40374;49.480;20.016;2022-11-20T01:21:26;94492.34;;;-1.98;100.00
54465;BME280;40374;49.480;20.016;2022-11-20T01:23:54;94477.47;;;-2.18;100.00
54465;BME280;40374;49.480;20.016;2022-11-20T01:26:25;94465.91;;;-2.17;100.00
54465;BME280;40374;49.480;20.016;2022-11-20T01:28:53;94475.44;;;-2.16;100.00
54465;BME280;40374;49.480;20.016;2022-11-20T01:31:25;94485.88;;;-2.02;100.00
54465;BME280;40374;49.480;20.016;2022-11-20T01:33:57;94480.19;;;-1.99;100.00
54465;BME280;40374;49.480;20.016;2022-11-20T01:36:26;94477.97;;;-2.02;100.00
54465;BME280;40374;49.480;20.016;2022-11-20T01:38:56;94487.91;;;-2.05;100.00
54465;BME280;40374;49.480;20.016;2022-11-20T01:41:26;94479.88;;;-2.10;100.00
54465;BME280;40374;49.480;20.016;2022-11-20T01:44:14;94482.59;;;-1.98;100.00
54465;BME280;40374;49.480;20.016;2022-11-20T01:46:59;94472.78;;;-1.84;100.00
54465;BME280;40374;49.480;20.016;2022-11-20T01:49:37;94462.66;;;-1.87;100.00
54465;BME280;40374;49.480;20.016;2022-11-20T01:52:16;94469.13;;;-1.83;100.00
54465;BME280;40374;49.480;20.016;2022-11-20T01:54:53;94470.34;;;-1.86;100.00
54465;BME280;40374;49.480;20.016;2022-11-20T01:57:25;94481.53;;;-1.90;100.00
54465;BME280;40374;49.480;20.016;2022-11-20T02:00:00;94478.06;;;-1.84;100.00
54465;BME280;40374;49.480;20.016;2022-11-20T02:02:39;94479.31;;;-1.93;100.00
54465;BME280;40374;49.480;20.016;2022-11-20T02:05:30;94490.97;;;-1.76;100.00
54465;BME280;40374;49.480;20.016;2022-11-20T02:07:59;94490.16;;;-2.01;100.00
54465;BME280;40374;49.480;20.016;2022-11-20T02:10:28;94480.81;;;-2.04;100.00
54465;BME280;40374;49.480;20.016;2022-11-20T02:12:56;94501.66;;;-1.96;100.00
54465;BME280;40374;49.480;20.016;2022-11-20T02:15:42;94507.38;;;-1.74;100.00
54465;BME280;40374;49.480;20.016;2022-11-20T02:18:11;94502.50;;;-2.02;100.00
54465;BME280;40374;49.480;20.016;2022-11-20T02:20:43;94492.78;;;-2.01;100.00
54465;BME280;40374;49.480;20.016;2022-11-20T02:23:16;94492.06;;;-2.15;100.00
54465;BME280;40374;49.480;20.016;2022-11-20T02:25:49;94469.88;;;-2.33;100.00
54465;BME280;40374;49.480;20.016;2022-11-20T02:28:17;94463.19;;;-2.35;100.00
54465;BME280;40374;49.480;20.016;2022-11-20T02:30:45;94479.81;;;-2.35;100.00
54465;BME280;40374;49.480;20.016;2022-11-20T02:33:12;94469.03;;;-2.33;100.00
54465;BME280;40374;49.480;20.016;2022-11-20T02:35:43;94454.69;;;-2.37;100.00
54465;BME280;40374;49.480;20.016;2022-11-20T02:38:14;94475.75;;;-2.31;100.00
54465;BME280;40374;49.480;20.016;2022-11-20T02:40:42;94458.94;;;-2.36;100.00
54465;BME280;40374;49.480;20.016;2022-11-20T02:43:09;94469.03;;;-2.27;100.00
54465;BME280;40374;49.480;20.016;2022-11-20T02:45:37;94468.53;;;-2.17;100.00
54465;BME280;40374;49.480;20.016;2022-11-20T02:48:06;94455.91;;;-2.08;100.00
54465;BME280;40374;49.480;20.016;2022-11-20T02:50:38;94449.75;;;-1.95;100.00
54465;BME280;40374;49.480;20.016;2022-11-20T02:53:06;94466.44;;;-2.08;100.00
54465;BME280;40374;49.480;20.016;2022-11-20T02:55:34;94457.16;;;-2.11;100.00
54465;BME280;40374;49.480;20.016;2022-11-20T02:58:02;94466.94;;;-2.18;100.00
54465;BME280;40374;49.480;20.016;2022-11-20T03:00:30;94457.59;;;-2.14;100.00
54465;BME280;40374;49.480;20.016;2022-11-20T03:02:57;94448.66;;;-2.13;100.00
54465;BME280;40374;49.480;20.016;2022-11-20T03:05:25;94455.31;;;-2.10;100.00
54465;BME280;40374;49.480;20.016;2022-11-20T03:07:52;94460.03;;;-2.19;100.00
54465;BME280;40374;49.480;20.016;2022-11-20T03:10:19;94455.03;;;-2.27;100.00
54465;BME280;40374;49.480;20.016;2022-11-20T03:12:46;94454.81;;;-2.26;100.00
54465;BME280;40374;49.480;20.016;2022-11-20T03:15:14;94445.28;;;-2.20;100.00
54465;BME280;40374;49.480;20.016;2022-11-20T03:17:41;94453.59;;;-2.23;100.00
54465;BME280;40374;49.480;20.016;2022-11-20T03:20:09;94451.72;;;-2.16;100.00
54465;BME280;40374;49.480;20.016;2022-11-20T03:22:36;94449.09;;;-2.16;100.00
54465;BME280;40374;49.480;20.016;2022-11-20T03:25:07;94449.91;;;-2.15;100.00
54465;BME280;40374;49.480;20.016;2022-11-20T03:27:34;94440.38;;;-2.16;100.00
54465;BME280;40374;49.480;20.016;2022-11-20T03:30:03;94456.69;;;-2.01;100.00
54465;BME280;40374;49.480;20.016;2022-11-20T03:32:31;94443.84;;;-2.16;100.00
54465;BME280;40374;49.480;20.016;2022-11-20T03:34:58;94446.63;;;-2.11;100.00
54465;BME280;40374;49.480;20.016;2022-11-20T03:37:26;94446.63;;;-2.11;100.00
54465;BME280;40374;49.480;20.016;2022-11-20T03:39:53;94438.31;;;-2.14;100.00
54465;BME280;40374;49.480;20.016;2022-11-20T03:42:21;94430.47;;;-2.21;100.00
54465;BME280;40374;49.480;20.016;2022-11-20T03:45:07;94429.22;;;-2.18;100.00
54465;BME280;40374;49.480;20.016;2022-11-20T03:47:34;94429.34;;;-2.32;100.00
54465;BME280;40374;49.480;20.016;2022-11-20T03:50:03;94424.19;;;-2.20;100.00
54465;BME280;40374;49.480;20.016;2022-11-20T03:52:30;94423.06;;;-2.31;100.00
54465;BME280;40374;49.480;20.016;2022-11-20T03:54:58;94424.84;;;-2.25;100.00
54465;BME280;40374;49.480;20.016;2022-11-20T03:57:28;94414.25;;;-2.18;100.00
54465;BME280;40374;49.480;20.016;2022-11-20T03:59:55;94422.31;;;-2.13;100.00
54465;BME280;40374;49.480;20.016;2022-11-20T04:02:23;94422.69;;;-2.09;100.00
54465;BME280;40374;49.480;20.016;2022-11-20T04:04:50;94416.19;;;-2.07;100.00
54465;BME280;40374;49.480;20.016;2022-11-20T04:07:17;94416.13;;;-2.00;100.00
54465;BME280;40374;49.480;20.016;2022-11-20T04:09:45;94420.19;;;-1.97;100.00
54465;BME280;40374;49.480;20.016;2022-11-20T04:12:12;94422.19;;;-1.93;100.00
54465;BME280;40374;49.480;20.016;2022-11-20T04:14:40;94407.44;;;-2.00;100.00
54465;BME280;40374;49.480;20.016;2022-11-20T04:17:07;94413.69;;;-1.95;100.00
54465;BME280;40374;49.480;20.016;2022-11-20T04:19:34;94421.13;;;-1.92;100.00
54465;BME280;40374;49.480;20.016;2022-11-20T04:22:01;94420.72;;;-1.89;100.00
54465;BME280;40374;49.480;20.016;2022-11-20T04:24:29;94426.34;;;-1.85;100.00
54465;BME280;40374;49.480;20.016;2022-11-20T04:26:56;94428.19;;;-1.86;100.00
54465;BME280;40374;49.480;20.016;2022-11-20T04:29:24;94422.31;;;-1.88;100.00
54465;BME280;40374;49.480;20.016;2022-11-20T04:31:51;94420.47;;;-1.87;100.00
54465;BME280;40374;49.480;20.016;2022-11-20T04:34:19;94423.72;;;-1.85;100.00
54465;BME280;40374;49.480;20.016;2022-11-20T04:36:46;94413.03;;;-1.90;100.00
54465;BME280;40374;49.480;20.016;2022-11-20T04:39:14;94422.78;;;-1.72;100.00
54465;BME280;40374;49.480;20.016;2022-11-20T04:41:45;94430.16;;;-1.81;100.00
54465;BME280;40374;49.480;20.016;2022-11-20T04:44:12;94437.44;;;-1.76;100.00
54465;BME280;40374;49.480;20.016;2022-11-20T04:46:41;94438.28;;;-1.57;100.00
54465;BME280;40374;49.480;20.016;2022-11-20T04:49:10;94432.84;;;-1.63;100.00
54465;BME280;40374;49.480;20.016;2022-11-20T04:51:38;94431.94;;;-1.75;100.00
54465;BME280;40374;49.480;20.016;2022-11-20T04:54:06;94428.06;;;-1.72;100.00
54465;BME280;40374;49.480;20.016;2022-11-20T04:56:33;94413.34;;;-1.80;100.00
54465;BME280;40374;49.480;20.016;2022-11-20T04:59:01;94408.28;;;-1.81;100.00
54465;BME280;40374;49.480;20.016;2022-11-20T05:01:29;94416.13;;;-1.75;100.00
54465;BME280;40374;49.480;20.016;2022-11-20T05:03:57;94409.00;;;-1.74;100.00
54465;BME280;40374;49.480;20.016;2022-11-20T05:06:25;94411.34;;;-1.59;100.00
54465;BME280;40374;49.480;20.016;2022-11-20T05:08:52;94409.56;;;-1.66;100.00
54465;BME280;40374;49.480;20.016;2022-11-20T05:11:20;94390.66;;;-1.63;100.00
54465;BME280;40374;49.480;20.016;2022-11-20T05:13:50;94400.13;;;-1.55;100.00
54465;BME280;40374;49.480;20.016;2022-11-20T05:16:20;94384.25;;;-1.48;100.00
54465;BME280;40374;49.480;20.016;2022-11-20T05:18:48;94376.03;;;-1.58;100.00
54465;BME280;40374;49.480;20.016;2022-11-20T05:21:16;94385.09;;;-1.54;100.00
54465;BME280;40374;49.480;20.016;2022-11-20T05:23:44;94384.16;;;-1.60;100.00
54465;BME280;40374;49.480;20.016;2022-11-20T05:26:17;94386.00;;;-1.42;100.00
54465;BME280;40374;49.480;20.016;2022-11-20T05:28:45;94387.75;;;-1.54;100.00
54465;BME280;40374;49.480;20.016;2022-11-20T05:31:19;94381.97;;;-1.45;100.00
54465;BME280;40374;49.480;20.016;2022-11-20T05:33:54;94387.28;;;-1.51;100.00
54465;BME280;40374;49.480;20.016;2022-11-20T05:36:22;94400.28;;;-1.50;100.00
54465;BME280;40374;49.480;20.016;2022-11-20T05:38:49;94398.09;;;-1.53;100.00
54465;BME280;40374;49.480;20.016;2022-11-20T05:41:20;94409.94;;;-1.44;100.00
54465;BME280;40374;49.480;20.016;2022-11-20T05:43:49;94414.44;;;-1.44;100.00
54465;BME280;40374;49.480;20.016;2022-11-20T05:46:19;94416.84;;;-1.42;100.00
54465;BME280;40374;49.480;20.016;2022-11-20T05:48:55;94407.53;;;-1.45;100.00
54465;BME280;40374;49.480;20.016;2022-11-20T05:51:23;94388.53;;;-1.54;100.00
54465;BME280;40374;49.480;20.016;2022-11-20T05:53:50;94389.94;;;-1.51;100.00
54465;BME280;40374;49.480;20.016;2022-11-20T05:56:19;94394.44;;;-1.33;100.00
54465;BME280;40374;49.480;20.016;2022-11-20T05:58:48;94386.81;;;-1.41;100.00
54465;BME280;40374;49.480;20.016;2022-11-20T06:01:20;94365.13;;;-1.25;100.00
54465;BME280;40374;49.480;20.016;2022-11-20T06:03:49;94360.00;;;-1.38;100.00
54465;BME280;40374;49.480;20.016;2022-11-20T06:06:18;94366.88;;;-1.37;100.00
54465;BME280;40374;49.480;20.016;2022-11-20T06:08:47;94355.34;;;-1.43;100.00
54465;BME280;40374;49.480;20.016;2022-11-20T06:11:16;94367.66;;;-1.37;100.00
54465;BME280;40374;49.480;20.016;2022-11-20T06:13:44;94370.19;;;-1.42;100.00
54465;BME280;40374;49.480;20.016;2022-11-20T06:16:15;94368.84;;;-1.33;100.00
54465;BME280;40374;49.480;20.016;2022-11-20T06:18:43;94365.56;;;-1.47;100.00
54465;BME280;40374;49.480;20.016;2022-11-20T06:21:16;94360.72;;;-1.31;100.00
54465;BME280;40374;49.480;20.016;2022-11-20T06:23:44;94360.94;;;-1.51;100.00
54465;BME280;40374;49.480;20.016;2022-11-20T06:26:20;94364.75;;;-1.29;100.00
54465;BME280;40374;49.480;20.016;2022-11-20T06:28:49;94365.91;;;-1.43;100.00
54465;BME280;40374;49.480;20.016;2022-11-20T06:31:19;94361.69;;;-1.44;100.00
54465;BME280;40374;49.480;20.016;2022-11-20T06:33:47;94371.25;;;-1.50;100.00
54465;BME280;40374;49.480;20.016;2022-11-20T06:36:16;94383.88;;;-1.33;100.00
54465;BME280;40374;49.480;20.016;2022-11-20T06:38:45;94369.41;;;-1.49;100.00
54465;BME280;40374;49.480;20.016;2022-11-20T06:41:17;94368.41;;;-1.30;100.00
54465;BME280;40374;49.480;20.016;2022-11-20T06:43:45;94349.22;;;-1.55;100.00
54465;BME280;40374;49.480;20.016;2022-11-20T06:46:14;94361.59;;;-1.37;100.00
54465;BME280;40374;49.480;20.016;2022-11-20T06:48:42;94362.25;;;-1.42;100.00
54465;BME280;40374;49.480;20.016;2022-11-20T06:51:09;94353.59;;;-1.31;100.00
54465;BME280;40374;49.480;20.016;2022-11-20T06:53:37;94351.13;;;-1.26;100.00
54465;BME280;40374;49.480;20.016;2022-11-20T06:56:06;94359.59;;;-1.05;100.00
54465;BME280;40374;49.480;20.016;2022-11-20T06:58:35;94363.53;;;-0.96;100.00
54465;BME280;40374;49.480;20.016;2022-11-20T07:01:06;94365.41;;;-0.85;100.00
54465;BME280;40374;49.480;20.016;2022-11-20T07:03:34;94368.38;;;-0.93;100.00
54465;BME280;40374;49.480;20.016;2022-11-20T07:06:03;94377.16;;;-0.80;100.00
54465;BME280;40374;49.480;20.016;2022-11-20T07:08:31;94387.59;;;-0.86;100.00
54465;BME280;40374;49.480;20.016;2022-11-20T07:11:00;94362.34;;;-0.82;100.00
54465;BME280;40374;49.480;20.016;2022-11-20T07:13:29;94378.59;;;-0.66;100.00
54465;BME280;40374;49.480;20.016;2022-11-20T07:16:02;94358.88;;;-0.52;100.00
54465;BME280;40374;49.480;20.016;2022-11-20T07:18:30;94383.66;;;-0.53;100.00
54465;BME280;40374;49.480;20.016;2022-11-20T07:21:09;94384.09;;;-0.37;100.00
54465;BME280;40374;49.480;20.016;2022-11-20T07:23:37;94389.50;;;-0.63;100.00
54465;BME280;40374;49.480;20.016;2022-11-20T07:26:09;94384.72;;;-0.42;100.00
54465;BME280;40374;49.480;20.016;2022-11-20T07:28:38;94375.72;;;-0.65;100.00
54465;BME280;40374;49.480;20.016;2022-11-20T07:31:05;94391.00;;;-0.55;100.00
54465;BME280;40374;49.480;20.016;2022-11-20T07:33:34;94394.34;;;-0.59;100.00
54465;BME280;40374;49.480;20.016;2022-11-20T07:36:02;94397.81;;;-0.47;100.00
54465;BME280;40374;49.480;20.016;2022-11-20T07:38:30;94395.22;;;-0.35;100.00
54465;BME280;40374;49.480;20.016;2022-11-20T07:40:57;94394.56;;;-0.31;100.00
54465;BME280;40374;49.480;20.016;2022-11-20T07:43:25;94378.03;;;-0.14;100.00
54465;BME280;40374;49.480;20.016;2022-11-20T07:45:57;94369.34;;;0.09;100.00
54465;BME280;40374;49.480;20.016;2022-11-20T07:48:25;94371.63;;;0.05;100.00
54465;BME280;40374;49.480;20.016;2022-11-20T07:50:56;94380.50;;;0.34;100.00
54465;BME280;40374;49.480;20.016;2022-11-20T07:53:24;94376.56;;;0.25;100.00
54465;BME280;40374;49.480;20.016;2022-11-20T07:55:51;94389.69;;;0.20;100.00
54465;BME280;40374;49.480;20.016;2022-11-20T07:58:20;94389.56;;;0.27;100.00
54465;BME280;40374;49.480;20.016;2022-11-20T08:00:48;94384.72;;;0.12;100.00
54465;BME280;40374;49.480;20.016;2022-11-20T08:03:16;94374.63;;;0.20;100.00
54465;BME280;40374;49.480;20.016;2022-11-20T08:05:50;94380.94;;;0.31;100.00
54465;BME280;40374;49.480;20.016;2022-11-20T08:08:18;94379.91;;;0.32;100.00
54465;BME280;40374;49.480;20.016;2022-11-20T08:10:45;94388.66;;;0.45;100.00
54465;BME280;40374;49.480;20.016;2022-11-20T08:13:13;94375.88;;;0.53;100.00
54465;BME280;40374;49.480;20.016;2022-11-20T08:15:59;94377.84;;;0.58;100.00
54465;BME280;40374;49.480;20.016;2022-11-20T08:18:26;94368.63;;;0.72;100.00
54465;BME280;40374;49.480;20.016;2022-11-20T08:21:03;94345.78;;;0.95;100.00
54465;BME280;40374;49.480;20.016;2022-11-20T08:23:31;94362.53;;;1.12;100.00
54465;BME280;40374;49.480;20.016;2022-11-20T08:25:58;94359.03;;;1.52;100.00
54465;BME280;40374;49.480;20.016;2022-11-20T08:28:26;94341.72;;;2.12;100.00
54465;BME280;40374;49.480;20.016;2022-11-20T08:31:00;94347.53;;;3.09;100.00
54465;BME280;40374;49.480;20.016;2022-11-20T08:33:28;94343.75;;;3.54;100.00
54465;BME280;40374;49.480;20.016;2022-11-20T08:36:00;94338.06;;;4.00;100.00
54465;BME280;40374;49.480;20.016;2022-11-20T08:38:29;94336.84;;;4.18;100.00
54465;BME280;40374;49.480;20.016;2022-11-20T08:41:01;94337.75;;;4.76;100.00
54465;BME280;40374;49.480;20.016;2022-11-20T08:43:48;94324.16;;;5.41;100.00
54465;BME280;40374;49.480;20.016;2022-11-20T08:46:16;94326.63;;;5.68;100.00
54465;BME280;40374;49.480;20.016;2022-11-20T08:48:44;94328.44;;;5.52;100.00
54465;BME280;40374;49.480;20.016;2022-11-20T08:51:12;94327.47;;;4.95;100.00
54465;BME280;40374;49.480;20.016;2022-11-20T08:53:40;94336.38;;;4.63;100.00
54465;BME280;40374;49.480;20.016;2022-11-20T08:56:08;94341.09;;;4.51;100.00
54465;BME280;40374;49.480;20.016;2022-11-20T08:58:38;94332.28;;;4.45;100.00
54465;BME280;40374;49.480;20.016;2022-11-20T09:01:26;94338.16;;;4.15;100.00
54465;BME280;40374;49.480;20.016;2022-11-20T09:03:57;94343.25;;;4.17;100.00
54465;BME280;40374;49.480;20.016;2022-11-20T09:06:26;94334.53;;;3.94;100.00
54465;BME280;40374;49.480;20.016;2022-11-20T09:08:54;94339.63;;;3.63;100.00
54465;BME280;40374;49.480;20.016;2022-11-20T09:11:22;94329.97;;;3.30;100.00
54465;BME280;40374;49.480;20.016;2022-11-20T09:13:50;94341.84;;;3.22;100.00
54465;BME280;40374;49.480;20.016;2022-11-20T09:16:17;94323.81;;;3.02;100.00
54465;BME280;40374;49.480;20.016;2022-11-20T09:18:45;94332.63;;;3.08;100.00
54465;BME280;40374;49.480;20.016;2022-11-20T09:21:13;94335.91;;;3.15;100.00
54465;BME280;40374;49.480;20.016;2022-11-20T09:23:41;94337.13;;;2.85;100.00
54465;BME280;40374;49.480;20.016;2022-11-20T09:26:13;94330.25;;;2.84;100.00
54465;BME280;40374;49.480;20.016;2022-11-20T09:28:41;94343.31;;;2.69;100.00
54465;BME280;40374;49.480;20.016;2022-11-20T09:31:26;94328.13;;;2.87;100.00
54465;BME280;40374;49.480;20.016;2022-11-20T09:33:54;94332.75;;;2.74;100.00
54465;BME280;40374;49.480;20.016;2022-11-20T09:36:22;94327.03;;;2.82;100.00
54465;BME280;40374;49.480;20.016;2022-11-20T09:38:50;94333.50;;;2.92;100.00
54465;BME280;40374;49.480;20.016;2022-11-20T09:47:07;94330.09;;;4.00;100.00
54465;BME280;40374;49.480;20.016;2022-11-20T09:55:13;94322.72;;;7.23;100.00
54465;BME280;40374;49.480;20.016;2022-11-20T09:57:47;94303.47;;;7.70;80.66
54465;BME280;40374;49.480;20.016;2022-11-20T10:00:16;94314.94;;;8.10;76.07
54465;BME280;40374;49.480;20.016;2022-11-20T10:02:50;94304.09;;;8.89;66.86
54465;BME280;40374;49.480;20.016;2022-11-20T10:05:41;94309.97;;;8.91;64.39
54465;BME280;40374;49.480;20.016;2022-11-20T10:11:42;94309.34;;;9.00;62.17
54465;BME280;40374;49.480;20.016;2022-11-20T10:16:42;94320.16;;;8.31;61.73
54465;BME280;40374;49.480;20.016;2022-11-20T10:19:45;94314.59;;;7.88;64.61
54465;BME280;40374;49.480;20.016;2022-11-20T10:22:31;94315.00;;;7.16;68.41
54465;BME280;40374;49.480;20.016;2022-11-20T10:25:15;94323.19;;;6.49;73.98
54465;BME280;40374;49.480;20.016;2022-11-20T10:28:09;94323.78;;;6.16;75.32
54465;BME280;40374;49.480;20.016;2022-11-20T10:30:44;94321.56;;;5.66;81.58
54465;BME280;40374;49.480;20.016;2022-11-20T10:33:19;94324.84;;;5.05;91.17
54465;BME280;40374;49.480;20.016;2022-11-20T10:35:56;94332.78;;;4.90;94.25
54465;BME280;40374;49.480;20.016;2022-11-20T10:38:36;94328.53;;;4.46;97.72
54465;BME280;40374;49.480;20.016;2022-11-20T10:41:21;94333.94;;;4.19;100.00
54465;BME280;40374;49.480;20.016;2022-11-20T10:46:36;94309.22;;;3.86;100.00
54465;BME280;40374;49.480;20.016;2022-11-20T10:49:18;94318.50;;;3.84;100.00
54465;BME280;40374;49.480;20.016;2022-11-20T10:55:18;94313.53;;;3.93;100.00
54465;BME280;40374;49.480;20.016;2022-11-20T11:00:31;94319.38;;;3.62;100.00
54465;BME280;40374;49.480;20.016;2022-11-20T11:02:58;94315.16;;;3.39;100.00
54465;BME280;40374;49.480;20.016;2022-11-20T11:05:54;94309.75;;;3.56;100.00
54465;BME280;40374;49.480;20.016;2022-11-20T11:08:26;94306.44;;;3.44;100.00
54465;BME280;40374;49.480;20.016;2022-11-20T11:11:07;94302.50;;;3.47;100.00
54465;BME280;40374;49.480;20.016;2022-11-20T11:13:42;94303.13;;;3.32;100.00
54465;BME280;40374;49.480;20.016;2022-11-20T11:16:24;94299.00;;;3.46;100.00
54465;BME280;40374;49.480;20.016;2022-11-20T11:21:34;94278.97;;;3.33;100.00
54465;BME280;40374;49.480;20.016;2022-11-20T11:24:03;94289.44;;;3.45;100.00
54465;BME280;40374;49.480;20.016;2022-11-20T11:27:04;94276.16;;;3.45;100.00
54465;BME280;40374;49.480;20.016;2022-11-20T11:29:44;94264.31;;;3.31;100.00
54465;BME280;40374;49.480;20.016;2022-11-20T11:32:18;94269.84;;;3.51;100.00
54465;BME280;40374;49.480;20.016;2022-11-20T11:35:05;94272.50;;;3.51;100.00
54465;BME280;40374;49.480;20.016;2022-11-20T11:37:36;94274.25;;;3.40;100.00
54465;BME280;40374;49.480;20.016;2022-11-20T11:40:06;94248.63;;;3.29;100.00
54465;BME280;40374;49.480;20.016;2022-11-20T11:42:59;94266.31;;;3.45;100.00
54465;BME280;40374;49.480;20.016;2022-11-20T11:45:29;94269.69;;;3.36;100.00
54465;BME280;40374;49.480;20.016;2022-11-20T11:47:58;94271.44;;;3.52;100.00
54465;BME280;40374;49.480;20.016;2022-11-20T11:50:28;94269.75;;;3.41;100.00
54465;BME280;40374;49.480;20.016;2022-11-20T11:55:43;94249.78;;;3.38;100.00
54465;BME280;40374;49.480;20.016;2022-11-20T12:01:26;94268.28;;;3.55;100.00
54465;BME280;40374;49.480;20.016;2022-11-20T12:10:29;94261.06;;;3.83;100.00
54465;BME280;40374;49.480;20.016;2022-11-20T12:16:02;94262.63;;;3.84;100.00
54465;BME280;40374;49.480;20.016;2022-11-20T12:18:31;94264.25;;;3.85;100.00
54465;BME280;40374;49.480;20.016;2022-11-20T12:38:38;94253.81;;;4.16;100.00
54465;BME280;40374;49.480;20.016;2022-11-20T12:41:40;94244.63;;;3.96;100.00
54465;BME280;40374;49.480;20.016;2022-11-20T12:51:07;94254.47;;;3.91;100.00
54465;BME280;40374;49.480;20.016;2022-11-20T13:02:33;94264.69;;;3.72;100.00
54465;BME280;40374;49.480;20.016;2022-11-20T13:08:23;94240.25;;;3.80;100.00
54465;BME280;40374;49.480;20.016;2022-11-20T13:11:14;94254.25;;;4.02;100.00
54465;BME280;40374;49.480;20.016;2022-11-20T13:14:24;94252.91;;;4.00;100.00
54465;BME280;40374;49.480;20.016;2022-11-20T13:19:55;94242.59;;;4.03;100.00
54465;BME280;40374;49.480;20.016;2022-11-20T13:22:42;94250.50;;;3.98;100.00
54465;BME280;40374;49.480;20.016;2022-11-20T13:25:30;94244.72;;;4.06;100.00
54465;BME280;40374;49.480;20.016;2022-11-20T13:28:00;94241.03;;;4.13;100.00
54465;BME280;40374;49.480;20.016;2022-11-20T13:30:35;94242.31;;;4.05;100.00
54465;BME280;40374;49.480;20.016;2022-11-20T13:33:09;94240.41;;;3.95;100.00
54465;BME280;40374;49.480;20.016;2022-11-20T13:36:06;94227.28;;;3.83;100.00
54465;BME280;40374;49.480;20.016;2022-11-20T13:38:48;94222.25;;;3.87;100.00
54465;BME280;40374;49.480;20.016;2022-11-20T13:41:36;94208.19;;;3.97;100.00
54465;BME280;40374;49.480;20.016;2022-11-20T13:44:13;94214.88;;;3.99;100.00
54465;BME280;40374;49.480;20.016;2022-11-20T13:46:44;94221.16;;;3.83;100.00
54465;BME280;40374;49.480;20.016;2022-11-20T14:00:10;94201.69;;;3.13;100.00
54465;BME280;40374;49.480;20.016;2022-11-20T14:02:41;94201.34;;;3.04;100.00
54465;BME280;40374;49.480;20.016;2022-11-20T14:05:21;94203.19;;;2.98;100.00
54465;BME280;40374;49.480;20.016;2022-11-20T14:07:51;94221.16;;;2.91;100.00
54465;BME280;40374;49.480;20.016;2022-11-20T14:10:24;94218.00;;;2.67;100.00
54465;BME280;40374;49.480;20.016;2022-11-20T14:12:58;94237.47;;;2.56;100.00
54465;BME280;40374;49.480;20.016;2022-11-20T14:15:29;94237.31;;;2.40;100.00
54465;BME280;40374;49.480;20.016;2022-11-20T14:17:58;94235.63;;;2.34;100.00
54465;BME280;40374;49.480;20.016;2022-11-20T14:20:29;94240.94;;;2.34;100.00
54465;BME280;40374;49.480;20.016;2022-11-20T14:22:58;94226.38;;;2.15;100.00
54465;BME280;40374;49.480;20.016;2022-11-20T14:25:26;94225.25;;;2.11;100.00
54465;BME280;40374;49.480;20.016;2022-11-20T14:27:57;94239.69;;;2.20;100.00
54465;BME280;40374;49.480;20.016;2022-11-20T14:30:28;94233.06;;;2.00;100.00
54465;BME280;40374;49.480;20.016;2022-11-20T14:33:01;94231.53;;;2.05;100.00
54465;BME280;40374;49.480;20.016;2022-11-20T14:35:34;94218.63;;;1.91;100.00
54465;BME280;40374;49.480;20.016;2022-11-20T14:38:03;94224.03;;;1.79;100.00
54465;BME280;40374;49.480;20.016;2022-11-20T14:40:34;94227.06;;;1.88;100.00
54465;BME280;40374;49.480;20.016;2022-11-20T14:46:03;94233.50;;;1.75;100.00
54465;BME280;40374;49.480;20.016;2022-11-20T14:48:37;94243.78;;;1.72;100.00